createdAt,value
2023-03-19T00:02:17.693Z,12.80
2023-03-19T00:04:46.740Z,12.20
2023-03-19T00:07:15.860Z,12.70
2023-03-19T00:09:44.132Z,14.40
2023-03-19T00:12:12.169Z,12.93
2023-03-19T00:14:39.739Z,12.63
2023-03-19T00:17:07.367Z,12.55
2023-03-19T00:19:34.770Z,12.18
2023-03-19T00:22:02.084Z,11.73
2023-03-19T00:24:29.360Z,12.27
2023-03-19T00:26:56.891Z,12.18
2023-03-19T00:29:24.993Z,12.50
2023-03-19T00:31:52.562Z,13.13
2023-03-19T00:34:20.056Z,12.45
2023-03-19T00:36:49.320Z,12.98
2023-03-19T00:39:16.787Z,13.55
2023-03-19T00:41:50.485Z,12.93
2023-03-19T00:44:19.283Z,13.20
2023-03-19T00:46:46.949Z,12.70
2023-03-19T00:49:14.204Z,13.32
2023-03-19T00:51:43.939Z,14.18
2023-03-19T00:54:12.442Z,14.05
2023-03-19T00:56:39.696Z,14.77
2023-03-19T00:59:06.946Z,13.32
2023-03-19T01:01:34.760Z,13.40
2023-03-19T01:04:02.042Z,13.55
2023-03-19T01:06:29.146Z,12.98
2023-03-19T01:08:56.769Z,13.77
2023-03-19T01:11:25.867Z,14.20
2023-03-19T01:13:53.663Z,14.35
2023-03-19T01:16:20.915Z,14.35
2023-03-19T01:18:48.121Z,14.80
2023-03-19T01:21:15.179Z,13.65
2023-03-19T01:23:46.964Z,13.52
2023-03-19T01:26:14.633Z,13.00
2023-03-19T01:28:43.460Z,13.48
2023-03-19T01:31:11.771Z,12.32
2023-03-19T01:33:58.728Z,12.52
2023-03-19T01:36:34.507Z,12.85
2023-03-19T01:39:04.257Z,14.13
2023-03-19T01:41:32.068Z,13.20
2023-03-19T01:44:28.395Z,13.98
2023-03-19T01:47:23.600Z,14.05
2023-03-19T01:50:35.082Z,14.13
2023-03-19T01:53:27.728Z,13.80
2023-03-19T01:56:15.941Z,14.63
2023-03-19T01:59:11.385Z,13.73
2023-03-19T02:02:01.469Z,14.07
2023-03-19T02:04:31.765Z,16.13
2023-03-19T02:07:01.368Z,14.40
2023-03-19T02:09:30.453Z,14.00
2023-03-19T02:11:58.797Z,14.85
2023-03-19T02:14:26.210Z,14.98
2023-03-19T02:16:54.890Z,13.82
2023-03-19T02:19:34.618Z,14.02
2023-03-19T02:22:03.749Z,12.02
2023-03-19T02:24:39.064Z,13.88
2023-03-19T02:27:10.863Z,14.05
2023-03-19T02:29:42.423Z,13.43
2023-03-19T02:32:09.663Z,12.57
2023-03-19T02:34:39.547Z,13.52
2023-03-19T02:37:14.459Z,14.02
2023-03-19T02:39:48.031Z,13.90
2023-03-19T02:42:17.374Z,13.82
2023-03-19T02:44:44.538Z,13.30
2023-03-19T02:47:11.891Z,13.70
2023-03-19T02:49:39.188Z,15.05
2023-03-19T02:52:06.443Z,13.18
2023-03-19T02:54:33.563Z,14.13
2023-03-19T02:57:01.177Z,13.13
2023-03-19T02:59:28.509Z,12.93
2023-03-19T03:01:55.841Z,13.07
2023-03-19T03:04:23.062Z,13.98
2023-03-19T03:06:50.132Z,15.15
2023-03-19T03:09:17.297Z,15.02
2023-03-19T03:11:44.886Z,14.52
2023-03-19T03:14:12.635Z,14.30
2023-03-19T03:16:41.280Z,15.25
2023-03-19T03:19:08.462Z,14.80
2023-03-19T03:21:36.314Z,15.05
2023-03-19T03:24:03.892Z,14.98
2023-03-19T03:26:31.169Z,15.10
2023-03-19T03:28:58.300Z,14.82
2023-03-19T03:31:25.395Z,15.65
2023-03-19T03:33:52.680Z,15.48
2023-03-19T03:36:19.796Z,15.05
2023-03-19T03:38:46.953Z,14.82
2023-03-19T03:41:16.113Z,14.40
2023-03-19T03:43:43.387Z,14.30
2023-03-19T03:46:10.771Z,14.20
2023-03-19T03:48:38.503Z,13.60
2023-03-19T03:51:05.764Z,13.50
2023-03-19T03:53:33.383Z,12.75
2023-03-19T03:56:02.534Z,15.65
2023-03-19T03:58:30.881Z,14.10
2023-03-19T04:00:57.956Z,13.65
2023-03-19T04:03:25.647Z,15.55
2023-03-19T04:05:53.228Z,15.07
2023-03-19T04:08:21.920Z,14.25
2023-03-19T04:10:49.285Z,14.65
2023-03-19T04:13:17.449Z,14.32
2023-03-19T04:15:45.126Z,14.80
2023-03-19T04:18:13.951Z,15.57
2023-03-19T04:20:42.136Z,16.40
2023-03-19T04:23:09.337Z,16.48
2023-03-19T04:25:40.492Z,17.58
2023-03-19T04:28:09.096Z,16.60
2023-03-19T04:30:36.697Z,16.42
2023-03-19T04:33:04.963Z,15.57
2023-03-19T04:35:32.108Z,16.25
2023-03-19T04:37:59.382Z,15.70
2023-03-19T04:40:26.605Z,13.65
2023-03-19T04:42:54.969Z,14.23
2023-03-19T04:45:31.673Z,13.15
2023-03-19T04:47:59.732Z,13.73
2023-03-19T04:50:27.982Z,15.57
2023-03-19T04:52:55.686Z,14.52
2023-03-19T04:55:24.349Z,14.45
2023-03-19T04:58:01.411Z,15.70
2023-03-19T05:00:31.884Z,14.85
2023-03-19T05:02:59.775Z,15.57
2023-03-19T05:05:29.195Z,16.90
2023-03-19T05:07:57.531Z,16.23
2023-03-19T05:10:25.834Z,16.45
2023-03-19T05:12:53.437Z,15.95
2023-03-19T05:15:20.959Z,15.70
2023-03-19T05:17:59.322Z,14.75
2023-03-19T05:20:34.685Z,15.50
2023-03-19T05:23:06.713Z,14.32
2023-03-19T05:25:41.646Z,15.25
2023-03-19T05:28:11.746Z,15.20
2023-03-19T05:30:39.022Z,18.63
2023-03-19T05:33:22.752Z,15.68
2023-03-19T05:35:51.806Z,15.35
2023-03-19T05:38:27.335Z,14.02
2023-03-19T05:41:05.225Z,13.65
2023-03-19T05:43:42.653Z,15.07
2023-03-19T05:46:17.994Z,14.43
2023-03-19T05:48:45.260Z,14.75
2023-03-19T05:51:12.786Z,14.57
2023-03-19T05:53:43.265Z,13.85
2023-03-19T05:56:30.539Z,15.55
2023-03-19T05:59:16.809Z,14.13
2023-03-19T06:01:51.630Z,15.57
2023-03-19T06:04:19.126Z,14.70
2023-03-19T06:06:47.301Z,15.10
2023-03-19T06:09:14.881Z,14.95
2023-03-19T06:11:43.912Z,16.08
2023-03-19T06:14:31.244Z,14.50
2023-03-19T06:17:18.486Z,16.33
2023-03-19T06:19:47.719Z,16.60
2023-03-19T06:22:15.178Z,16.48
2023-03-19T06:24:42.498Z,15.60
2023-03-19T06:27:09.865Z,16.92
2023-03-19T06:29:37.492Z,18.58
2023-03-19T06:32:16.719Z,17.58
2023-03-19T06:34:43.891Z,15.48
2023-03-19T06:37:11.970Z,16.35
2023-03-19T06:39:39.568Z,17.27
2023-03-19T06:42:07.583Z,16.02
2023-03-19T06:44:35.308Z,15.75
2023-03-19T06:47:02.415Z,16.00
2023-03-19T06:49:30.059Z,15.13
2023-03-19T06:51:57.282Z,16.63
2023-03-19T06:54:24.411Z,16.33
2023-03-19T06:56:51.622Z,15.75
2023-03-19T06:59:18.734Z,15.68
2023-03-19T07:01:46.971Z,15.23
2023-03-19T07:04:14.179Z,15.07
2023-03-19T07:06:41.379Z,14.68
2023-03-19T07:09:08.843Z,14.45
2023-03-19T07:11:36.484Z,15.13
2023-03-19T07:14:04.320Z,16.83
2023-03-19T07:16:31.543Z,17.17
2023-03-19T07:18:58.868Z,15.57
2023-03-19T07:21:25.945Z,14.93
2023-03-19T07:23:52.997Z,15.15
2023-03-19T07:26:20.190Z,14.25
2023-03-19T07:28:47.291Z,14.57
2023-03-19T07:31:14.650Z,15.95
2023-03-19T07:33:41.784Z,16.10
2023-03-19T07:36:09.278Z,15.73
2023-03-19T07:38:36.469Z,16.60
2023-03-19T07:41:04.283Z,15.75
2023-03-19T07:43:31.733Z,16.02
2023-03-19T07:45:59.505Z,15.80
2023-03-19T07:48:27.459Z,15.18
2023-03-19T07:50:54.572Z,15.07
2023-03-19T07:53:21.706Z,16.20
2023-03-19T07:55:49.176Z,15.45
2023-03-19T07:58:17.157Z,15.93
2023-03-19T08:00:45.236Z,15.65
2023-03-19T08:03:12.585Z,14.35
2023-03-19T08:05:39.937Z,15.13
2023-03-19T08:08:07.476Z,15.35
2023-03-19T08:10:36.607Z,13.98
2023-03-19T08:13:05.461Z,14.68
2023-03-19T08:15:33.174Z,13.75
2023-03-19T08:18:01.614Z,15.13
2023-03-19T08:20:28.962Z,13.98
2023-03-19T08:22:57.720Z,14.48
2023-03-19T08:25:26.161Z,13.68
2023-03-19T08:28:06.103Z,13.57
2023-03-19T08:30:33.437Z,13.63
2023-03-19T08:33:00.993Z,13.45
2023-03-19T08:35:28.693Z,13.68
2023-03-19T08:37:56.220Z,13.85
2023-03-19T08:40:24.124Z,13.38
2023-03-19T08:42:51.215Z,13.85
2023-03-19T08:45:20.601Z,15.43
2023-03-19T08:47:49.984Z,14.65
2023-03-19T08:50:19.852Z,14.30
2023-03-19T08:52:47.319Z,14.85
2023-03-19T08:55:14.459Z,14.68
2023-03-19T08:57:41.753Z,14.43
2023-03-19T09:00:10.150Z,14.05
2023-03-19T09:02:37.556Z,15.10
2023-03-19T09:05:05.024Z,14.10
2023-03-19T09:07:32.194Z,17.83
2023-03-19T09:09:59.264Z,15.30
2023-03-19T09:12:27.835Z,14.93
2023-03-19T09:14:55.112Z,16.05
2023-03-19T09:17:22.355Z,14.80
2023-03-19T09:19:49.386Z,16.33
2023-03-19T09:22:16.709Z,16.13
2023-03-19T09:24:43.897Z,16.85
2023-03-19T09:27:11.060Z,18.73
2023-03-19T09:29:38.300Z,17.98
2023-03-19T09:32:06.184Z,17.40
2023-03-19T09:34:33.367Z,16.92
2023-03-19T09:37:00.463Z,17.88
2023-03-19T09:39:27.716Z,18.20
2023-03-19T09:42:00.918Z,17.55
2023-03-19T09:44:32.979Z,16.08
2023-03-19T09:47:19.964Z,14.77
2023-03-19T09:49:49.322Z,15.77
2023-03-19T09:52:35.595Z,16.88
2023-03-19T09:55:11.670Z,15.52
2023-03-19T09:57:39.716Z,15.80
2023-03-19T10:00:20.661Z,16.67
2023-03-19T10:02:53.635Z,16.35
2023-03-19T10:05:40.632Z,16.60
2023-03-19T10:08:26.399Z,16.92
2023-03-19T10:11:04.769Z,17.10
2023-03-19T10:13:53.761Z,18.00
2023-03-19T10:16:24.326Z,16.83
2023-03-19T10:18:56.070Z,17.85
2023-03-19T10:21:24.273Z,16.77
2023-03-19T10:24:15.075Z,18.13
2023-03-19T10:26:44.048Z,17.17
2023-03-19T10:29:18.952Z,17.95
2023-03-19T10:32:11.011Z,18.73
2023-03-19T10:34:45.940Z,18.10
2023-03-19T10:37:13.067Z,19.00
2023-03-19T10:39:43.197Z,17.45
2023-03-19T10:42:33.594Z,18.17
2023-03-19T10:45:36.083Z,17.58
2023-03-19T10:48:05.464Z,17.77
2023-03-19T10:50:38.960Z,16.55
2023-03-19T10:53:22.401Z,16.33
2023-03-19T10:55:53.342Z,16.98
2023-03-19T10:58:26.260Z,16.42
2023-03-19T11:01:13.339Z,15.60
2023-03-19T11:03:49.896Z,16.05
2023-03-19T11:06:20.335Z,16.33
2023-03-19T11:09:08.335Z,16.25
2023-03-19T11:11:45.454Z,15.20
2023-03-19T11:14:32.370Z,15.27
2023-03-19T11:17:06.678Z,17.30
2023-03-19T11:19:41.766Z,16.42
2023-03-19T11:22:20.892Z,16.02
2023-03-19T11:24:52.304Z,15.27
2023-03-19T11:27:32.443Z,15.63
2023-03-19T11:29:59.666Z,15.43
2023-03-19T11:32:47.648Z,16.25
2023-03-19T11:35:25.303Z,17.27
2023-03-19T11:38:01.926Z,17.02
2023-03-19T11:40:56.485Z,17.40
2023-03-19T11:43:47.084Z,16.65
2023-03-19T11:46:44.230Z,17.23
2023-03-19T11:49:31.821Z,17.65
2023-03-19T11:52:10.967Z,18.45
2023-03-19T11:54:48.898Z,17.83
2023-03-19T11:57:26.641Z,17.75
2023-03-19T11:59:57.153Z,16.77
2023-03-19T12:02:26.353Z,17.13
2023-03-19T12:05:30.043Z,17.17
2023-03-19T12:08:19.255Z,16.45
2023-03-19T12:11:28.589Z,17.08
2023-03-19T12:14:07.378Z,17.40
2023-03-19T12:17:14.532Z,17.33
2023-03-19T12:19:43.949Z,17.90
2023-03-19T12:22:47.097Z,18.13
2023-03-19T12:25:28.916Z,17.80
2023-03-19T12:28:00.055Z,18.40
2023-03-19T12:30:41.632Z,17.27
2023-03-19T12:33:38.434Z,16.80
2023-03-19T12:36:11.143Z,17.00
2023-03-19T12:38:49.170Z,16.70
2023-03-19T12:41:26.172Z,18.23
2023-03-19T12:43:54.307Z,16.48
2023-03-19T12:46:27.643Z,16.52
2023-03-19T12:49:03.672Z,16.38
2023-03-19T12:51:36.767Z,16.98
2023-03-19T12:54:10.622Z,16.55
2023-03-19T12:57:04.171Z,18.27
2023-03-19T12:59:35.509Z,17.48
2023-03-19T13:02:34.477Z,16.95
2023-03-19T13:05:23.081Z,17.95
2023-03-19T13:08:10.730Z,17.15
2023-03-19T13:10:39.674Z,16.30
2023-03-19T13:13:33.287Z,17.10
2023-03-19T13:16:16.113Z,16.83
2023-03-19T13:18:57.407Z,16.02
2023-03-19T13:21:30.295Z,16.70
2023-03-19T13:24:06.330Z,16.70
2023-03-19T13:26:36.688Z,16.58
2023-03-19T13:29:23.588Z,15.88
2023-03-19T13:31:52.067Z,16.55
2023-03-19T13:34:22.216Z,15.65
2023-03-19T13:37:01.107Z,17.25
2023-03-19T13:39:32.896Z,16.42
2023-03-19T13:42:11.949Z,15.35
2023-03-19T13:44:43.136Z,15.38
2023-03-19T13:47:31.762Z,15.55
2023-03-19T13:50:18.807Z,16.00
2023-03-19T13:52:46.043Z,14.25
2023-03-19T13:55:32.954Z,15.73
2023-03-19T13:58:12.720Z,15.07
2023-03-19T14:00:44.687Z,15.50
2023-03-19T14:03:24.534Z,14.30
2023-03-19T14:05:54.915Z,14.55
2023-03-19T14:08:35.267Z,16.55
2023-03-19T14:11:06.821Z,14.52
2023-03-19T14:13:41.722Z,14.93
2023-03-19T14:16:21.243Z,14.15
2023-03-19T14:18:50.633Z,14.60
2023-03-19T14:21:45.686Z,14.52
2023-03-19T14:27:33.353Z,14.45
2023-03-19T14:30:09.478Z,14.20
2023-03-19T14:32:41.156Z,12.90
2023-03-19T14:35:13.193Z,13.45
2023-03-19T14:37:49.427Z,12.93
2023-03-19T14:40:37.620Z,13.27
2023-03-19T14:43:14.533Z,13.10
2023-03-19T14:46:05.046Z,13.90
2023-03-19T14:49:12.564Z,13.60
2023-03-19T14:52:04.371Z,12.90
2023-03-19T14:54:42.216Z,12.77
2023-03-19T14:57:21.027Z,12.60
2023-03-19T14:59:50.747Z,13.88
2023-03-19T15:02:17.723Z,12.52
2023-03-19T15:04:46.996Z,12.65
2023-03-19T15:07:21.683Z,11.27
2023-03-19T15:09:54.522Z,12.13
2023-03-19T15:12:49.770Z,11.27
2023-03-19T15:15:21.370Z,11.82
2023-03-19T15:18:03.488Z,11.48
2023-03-19T15:20:37.556Z,11.60
2023-03-19T15:23:20.039Z,11.82
2023-03-19T15:25:56.954Z,11.50
2023-03-19T15:28:27.086Z,11.05
2023-03-19T15:31:05.719Z,10.73
2023-03-19T15:33:42.650Z,12.03
2023-03-19T15:36:34.048Z,12.00
2023-03-19T15:39:05.147Z,11.18
2023-03-19T15:41:37.179Z,11.93
2023-03-19T15:44:10.569Z,12.10
2023-03-19T15:46:41.359Z,12.00
2023-03-19T15:49:12.971Z,11.30
2023-03-19T15:51:41.076Z,11.75
2023-03-19T15:54:09.157Z,11.50
2023-03-19T15:56:37.744Z,11.85
2023-03-19T15:59:06.544Z,11.65
2023-03-19T16:01:34.575Z,11.43
2023-03-19T16:04:08.156Z,11.82
2023-03-19T16:06:40.080Z,11.10
2023-03-19T16:09:20.125Z,11.98
2023-03-19T16:11:47.810Z,11.68
2023-03-19T16:14:18.122Z,11.27
2023-03-19T16:16:47.302Z,10.85
2023-03-19T16:19:37.006Z,11.73
2023-03-19T16:22:15.425Z,11.52
2023-03-19T16:24:48.261Z,12.25
2023-03-19T16:27:20.513Z,12.13
2023-03-19T16:29:55.970Z,10.95
2023-03-19T16:32:25.635Z,11.05
2023-03-19T16:34:58.371Z,11.73
2023-03-19T16:37:30.100Z,11.40
2023-03-19T16:40:16.228Z,10.98
2023-03-19T16:42:46.043Z,11.18
2023-03-19T16:45:18.547Z,12.38
2023-03-19T16:47:52.849Z,13.45
2023-03-19T16:50:23.718Z,14.50
2023-03-19T16:52:51.411Z,14.38
2023-03-19T16:55:23.074Z,13.85
2023-03-19T16:58:18.559Z,12.27
2023-03-19T17:00:47.586Z,13.15
2023-03-19T17:03:17.626Z,12.75
2023-03-19T17:05:46.744Z,13.00
2023-03-19T17:08:15.599Z,12.25
2023-03-19T17:10:49.853Z,11.60
2023-03-19T17:13:21.549Z,12.43
2023-03-19T17:15:51.388Z,11.98
2023-03-19T17:18:21.117Z,12.52
2023-03-19T17:20:56.593Z,12.45
2023-03-19T17:23:27.301Z,16.55
2023-03-19T17:25:54.902Z,24.48
2023-03-19T17:28:22.960Z,24.77
2023-03-19T17:30:50.866Z,23.90
2023-03-19T17:33:34.178Z,19.65
2023-03-19T17:36:02.086Z,14.38
2023-03-19T17:38:34.021Z,14.40
2023-03-19T17:41:01.758Z,14.48
2023-03-19T17:43:29.158Z,12.07
2023-03-19T17:45:57.152Z,13.60
2023-03-19T17:48:26.523Z,12.55
2023-03-19T17:50:58.739Z,11.90
2023-03-19T17:53:26.800Z,10.98
2023-03-19T17:55:54.014Z,10.57
2023-03-19T17:58:23.046Z,10.75
2023-03-19T18:00:51.476Z,9.70
2023-03-19T18:03:22.090Z,9.52
2023-03-19T18:05:50.778Z,10.15
2023-03-19T18:08:20.920Z,10.00
2023-03-19T18:10:48.249Z,9.93
2023-03-19T18:13:15.687Z,8.40
2023-03-19T18:15:45.244Z,10.20
2023-03-19T18:18:17.791Z,10.18
2023-03-19T18:20:46.784Z,10.00
2023-03-19T18:23:16.349Z,9.70
2023-03-19T18:25:45.128Z,9.55
2023-03-19T18:28:12.510Z,9.93
2023-03-19T18:30:41.548Z,9.80
2023-03-19T18:33:25.265Z,10.90
2023-03-19T18:35:53.746Z,11.45
2023-03-19T18:38:23.420Z,10.73
2023-03-19T18:40:51.539Z,10.05
2023-03-19T18:43:19.085Z,9.75
2023-03-19T18:45:51.262Z,9.80
2023-03-19T18:48:29.101Z,11.13
2023-03-19T18:50:57.514Z,9.75
2023-03-19T18:53:25.197Z,9.65
2023-03-19T18:55:52.634Z,9.57
2023-03-19T18:58:23.415Z,11.20
2023-03-19T19:00:51.815Z,11.07
2023-03-19T19:03:22.736Z,11.00
2023-03-19T19:05:49.900Z,12.10
2023-03-19T19:08:19.735Z,11.25
2023-03-19T19:10:50.210Z,11.35
2023-03-19T19:13:22.760Z,11.63
2023-03-19T19:21:33.412Z,11.35
2023-03-19T19:24:00.691Z,10.70
2023-03-19T19:26:30.736Z,11.98
2023-03-19T19:29:01.174Z,13.15
2023-03-19T19:31:32.491Z,11.88
2023-03-19T19:34:01.018Z,12.48
2023-03-19T19:36:28.867Z,12.32
2023-03-19T19:38:56.197Z,12.40
2023-03-19T19:41:26.564Z,12.85
2023-03-19T19:43:56.047Z,13.23
2023-03-19T19:46:24.695Z,13.50
2023-03-19T19:48:52.401Z,15.68
2023-03-19T19:51:24.105Z,13.93
2023-03-19T19:53:52.519Z,14.13
2023-03-19T19:56:22.393Z,20.73
2023-03-19T19:58:52.559Z,18.33
2023-03-19T20:01:22.762Z,18.52
2023-03-19T20:03:50.695Z,18.42
2023-03-19T20:06:18.389Z,19.88
2023-03-19T20:08:48.341Z,17.77
2023-03-19T20:11:18.949Z,17.63
2023-03-19T20:13:50.036Z,16.08
2023-03-19T20:16:19.020Z,16.70
2023-03-19T20:18:47.745Z,15.75
2023-03-19T20:21:16.259Z,15.43
2023-03-19T20:23:44.477Z,16.95
2023-03-19T20:26:17.593Z,17.42
2023-03-19T20:28:45.558Z,17.48
2023-03-19T20:31:24.904Z,15.65
2023-03-19T20:33:52.364Z,14.60
2023-03-19T20:36:19.689Z,15.48
2023-03-19T20:38:47.179Z,14.43
2023-03-19T20:41:24.438Z,16.55
2023-03-19T20:43:52.163Z,17.02
2023-03-19T20:46:21.099Z,15.02
2023-03-19T20:48:49.083Z,13.98
2023-03-19T20:51:22.847Z,14.50
2023-03-19T20:53:51.661Z,14.63
2023-03-19T20:56:22.237Z,14.68
2023-03-19T20:58:49.516Z,15.57
2023-03-19T21:01:18.024Z,13.40
2023-03-19T21:03:45.557Z,10.77
2023-03-19T21:06:18.157Z,9.52
2023-03-19T21:08:48.355Z,8.30
2023-03-19T21:11:19.049Z,7.15
2023-03-19T21:13:48.177Z,8.82
2023-03-19T21:16:18.574Z,8.70
2023-03-19T21:18:47.115Z,8.38
2023-03-19T21:21:15.471Z,9.57
2023-03-19T21:23:53.774Z,9.40
2023-03-19T21:26:22.804Z,8.10
2023-03-19T21:28:55.216Z,8.05
2023-03-19T21:31:22.933Z,7.80
2023-03-19T21:33:52.370Z,7.85
2023-03-19T21:36:19.568Z,9.73
2023-03-19T21:38:47.748Z,10.30
2023-03-19T21:41:23.944Z,10.88
2023-03-19T21:43:56.278Z,11.68
2023-03-19T21:46:26.531Z,10.77
2023-03-19T21:48:55.613Z,9.23
2023-03-19T21:51:25.372Z,9.38
2023-03-19T21:53:52.569Z,9.88
2023-03-19T21:56:24.299Z,10.95
2023-03-19T21:58:53.358Z,12.73
2023-03-19T22:01:24.245Z,10.82
2023-03-19T22:03:53.396Z,8.45
2023-03-19T22:06:22.212Z,7.80
2023-03-19T22:08:49.730Z,8.27
2023-03-19T22:11:23.243Z,8.18
2023-03-19T22:13:50.536Z,8.75
2023-03-19T22:16:23.178Z,8.57
2023-03-19T22:18:51.849Z,8.20
2023-03-19T22:21:21.388Z,8.75
2023-03-19T22:23:48.967Z,9.18
2023-03-19T22:26:40.802Z,55.38
2023-03-19T22:29:19.583Z,25.05
2023-03-19T22:31:52.827Z,27.50
2023-03-19T22:34:22.844Z,21.20
2023-03-19T22:36:50.558Z,21.15
2023-03-19T22:39:18.111Z,13.32
2023-03-19T22:41:48.214Z,11.15
2023-03-19T22:44:23.197Z,10.55
2023-03-19T22:46:50.713Z,9.43
2023-03-19T22:49:17.892Z,10.13
2023-03-19T22:51:44.983Z,9.40
2023-03-19T22:54:12.503Z,8.93
2023-03-19T22:56:39.696Z,8.85
2023-03-19T22:59:06.931Z,8.57
2023-03-19T23:01:42.072Z,8.50
2023-03-19T23:04:27.727Z,9.55
2023-03-19T23:06:56.575Z,9.70
2023-03-19T23:09:27.626Z,8.65
2023-03-19T23:11:55.141Z,7.85
2023-03-19T23:14:30.080Z,7.97
2023-03-19T23:17:03.311Z,8.20
2023-03-19T23:19:34.540Z,9.05
2023-03-19T23:22:03.291Z,9.32
2023-03-19T23:24:31.075Z,8.35
2023-03-19T23:27:00.297Z,9.13
2023-03-19T23:29:29.850Z,9.55
2023-03-19T23:31:58.730Z,9.30
2023-03-19T23:34:28.674Z,9.23
2023-03-19T23:36:56.914Z,9.65
2023-03-19T23:39:24.640Z,9.05
2023-03-19T23:41:56.790Z,8.50
2023-03-19T23:44:24.315Z,7.68
2023-03-19T23:46:52.368Z,8.65
2023-03-19T23:49:35.282Z,8.40
2023-03-19T23:52:04.564Z,10.15
2023-03-19T23:54:35.190Z,10.10
2023-03-19T23:57:05.764Z,10.35
2023-03-19T23:59:36.970Z,8.82
